Time;durP1;ratioP1;P1;durP2;ratioP2;P2;SDS_P1;SDS_P2;PMS_P1;PMS_P2;Temp;Humidity;BMP_temperature;BMP_pressure;BME280_temperature;BME280_humidity;BME280_pressure;Samples;Min_cycle;Max_cycle;Signal;HPM_P1;HPM_P2
2023/09/10 00:01:47;;;;;;;8.90;2.90;;;;;;;17.54;41.12;101160.27;125736;1099;101981;-81
2023/09/10 00:04:18;;;;;;;6.87;2.90;;;;;;;17.54;41.05;101151.44;125663;1099;102013;-80
2023/09/10 00:06:49;;;;;;;8.50;2.80;;;;;;;17.50;41.41;101150.50;125502;1099;104179;-79
2023/09/10 00:09:21;;;;;;;7.40;3.03;;;;;;;17.45;40.82;101146.84;125574;1099;104249;-81
2023/09/10 00:11:52;;;;;;;8.70;3.13;;;;;;;17.44;41.38;101158.34;125573;1099;102570;-80
2023/09/10 00:14:24;;;;;;;6.97;2.70;;;;;;;17.40;41.14;101154.72;125459;1099;104236;-79
2023/09/10 00:17:00;;;;;;;8.17;2.83;;;;;;;17.39;40.89;101154.69;125555;1099;104220;-79
2023/09/10 00:19:32;;;;;;;5.97;2.67;;;;;;;17.36;40.97;101160.86;125645;1099;104220;-80
2023/09/10 00:22:03;;;;;;;7.25;3.00;;;;;;;17.37;41.43;101164.39;125501;1098;102212;-79
2023/09/10 00:24:35;;;;;;;7.13;2.97;;;;;;;17.37;41.21;101159.09;125358;1099;101991;-81
2023/09/10 00:27:06;;;;;;;9.00;2.90;;;;;;;17.32;40.89;101159.00;124896;1099;102069;-80
2023/09/10 00:29:38;;;;;;;9.23;2.97;;;;;;;17.27;41.61;101159.80;125520;1099;102019;-81
2023/09/10 00:32:09;;;;;;;7.27;2.90;;;;;;;17.28;41.50;101156.27;125666;1099;102032;-81
2023/09/10 00:34:40;;;;;;;7.20;2.97;;;;;;;17.27;41.15;101162.45;125749;1099;104173;-80
2023/09/10 00:37:12;;;;;;;8.70;3.10;;;;;;;17.23;41.28;101165.05;125670;1099;104178;-81
2023/09/10 00:39:44;;;;;;;9.87;2.87;;;;;;;17.19;41.65;101163.19;125701;1099;102299;-80
2023/09/10 00:42:15;;;;;;;7.67;2.77;;;;;;;17.15;41.62;101166.64;125509;1099;104313;-80
2023/09/10 00:44:46;;;;;;;5.10;2.70;;;;;;;17.13;41.70;101167.49;125627;1098;102342;-80
2023/09/10 00:47:18;;;;;;;9.90;2.80;;;;;;;17.08;41.33;101164.75;125601;1099;104183;-82
2023/09/10 00:49:50;;;;;;;6.63;2.73;;;;;;;17.07;41.14;101168.25;125745;1099;102108;-80
2023/09/10 00:52:22;;;;;;;7.07;2.67;;;;;;;17.03;41.74;101172.61;125670;1099;101983;-79
2023/09/10 00:54:54;;;;;;;5.33;2.90;;;;;;;17.02;41.58;101175.23;125602;1099;101894;-79
2023/09/10 00:57:27;;;;;;;10.70;2.83;;;;;;;16.98;41.39;101173.37;125628;1099;104195;-79
2023/09/10 00:59:59;;;;;;;8.80;2.80;;;;;;;16.95;41.16;101173.31;125585;1099;103112;-79
2023/09/10 01:02:30;;;;;;;7.00;3.30;;;;;;;16.91;41.67;101179.39;125609;1098;103057;-79
2023/09/10 01:05:02;;;;;;;3.47;2.43;;;;;;;16.87;41.23;101171.38;125618;1099;102441;-80
2023/09/10 01:07:35;;;;;;;9.60;2.60;;;;;;;16.86;41.85;101177.56;125584;1099;102227;-79
2023/09/10 01:10:09;;;;;;;7.87;2.62;;;;;;;16.83;41.97;101169.52;125662;1099;101768;-79
2023/09/10 01:12:51;;;;;;;8.07;3.00;;;;;;;16.79;42.19;101178.25;125655;1099;104172;-80
2023/09/10 01:15:31;;;;;;;6.83;2.60;;;;;;;16.69;41.55;101177.17;125618;1099;104166;-79
2023/09/10 01:18:09;;;;;;;6.10;2.50;;;;;;;16.62;41.70;101179.66;125691;1099;104098;-80
2023/09/10 01:21:07;;;;;;;6.43;2.70;;;;;;;16.57;42.60;101181.33;125533;1099;104076;-79
2023/09/10 01:23:50;;;;;;;8.87;3.43;;;;;;;16.52;42.34;101184.75;125707;1099;104073;-79
2023/09/10 01:26:22;;;;;;;10.77;3.30;;;;;;;16.49;43.09;101179.38;125620;1099;104127;-79
2023/09/10 01:28:53;;;;;;;11.00;3.80;;;;;;;16.43;43.69;101181.89;125691;1098;104182;-78
2023/09/10 01:31:24;;;;;;;8.70;3.30;;;;;;;16.38;43.04;101183.56;125588;1099;104172;-79
2023/09/10 01:33:59;;;;;;;8.70;3.50;;;;;;;16.30;43.87;101183.38;125645;1099;102048;-79
2023/09/10 01:36:37;;;;;;;13.77;3.57;;;;;;;16.27;44.03;101182.42;125675;1098;104335;-79
2023/09/10 01:39:12;;;;;;;9.33;3.47;;;;;;;16.25;43.84;101178.83;125589;1099;101852;-78
2023/09/10 01:41:47;;;;;;;10.07;3.80;;;;;;;16.24;44.57;101182.35;125637;1099;101778;-80
2023/09/10 01:44:19;;;;;;;9.60;3.45;;;;;;;16.13;44.27;101180.33;125645;1099;102017;-79
2023/09/10 01:46:51;;;;;;;7.23;3.43;;;;;;;16.08;44.98;101181.07;125484;1098;104172;-79
2023/09/10 01:49:23;;;;;;;10.43;3.27;;;;;;;16.06;45.45;101183.67;125563;1098;104188;-80
2023/09/10 01:51:54;;;;;;;11.87;3.50;;;;;;;16.05;45.42;101184.55;125701;1098;104169;-79
2023/09/10 01:54:25;;;;;;;10.60;4.33;;;;;;;16.05;45.05;101181.91;125438;1099;104160;-79
2023/09/10 01:56:57;;;;;;;11.53;3.70;;;;;;;15.99;45.25;101187.05;125616;1098;102492;-78
2023/09/10 01:59:28;;;;;;;6.83;3.03;;;;;;;15.96;45.65;101181.69;125526;1099;104338;-79
2023/09/10 02:01:59;;;;;;;11.03;3.50;;;;;;;15.96;45.24;101176.39;125542;1099;104166;-79
2023/09/10 02:04:31;;;;;;;5.23;3.30;;;;;;;15.95;45.59;101185.17;125597;1099;101823;-78
2023/09/10 02:07:02;;;;;;;7.93;3.13;;;;;;;15.94;45.05;101181.64;125671;1099;104172;-78
2023/09/10 02:09:34;;;;;;;9.73;3.30;;;;;;;15.92;45.37;101190.39;125617;1099;104267;-78
2023/09/10 02:12:07;;;;;;;9.60;2.80;;;;;;;15.85;45.72;101188.44;125571;1099;102948;-78
2023/09/10 02:14:38;;;;;;;6.50;3.00;;;;;;;15.81;45.18;101188.36;125728;1099;104069;-78
2023/09/10 02:17:10;;;;;;;9.77;2.90;;;;;;;15.79;45.75;101184.80;125790;1098;104089;-78
2023/09/10 02:19:42;;;;;;;8.17;2.93;;;;;;;15.77;45.03;101185.63;125629;1098;101834;-79
2023/09/10 02:22:13;;;;;;;5.53;2.87;;;;;;;15.76;46.13;101186.44;125811;1099;101992;-79
2023/09/10 02:24:49;;;;;;;6.07;2.80;;;;;;;15.72;45.76;101184.56;125506;1099;104142;-79
2023/09/10 02:27:21;;;;;;;7.67;3.10;;;;;;;15.68;44.94;101186.25;125714;1099;104267;-80
2023/09/10 02:29:52;;;;;;;12.27;3.20;;;;;;;15.71;46.08;101188.09;125697;1099;102258;-79
2023/09/10 02:32:24;;;;;;;6.60;3.17;;;;;;;15.70;45.51;101188.93;125697;1099;104210;-79
2023/09/10 02:34:55;;;;;;;9.10;3.07;;;;;;;15.70;45.56;101181.88;125700;1099;102153;-79
2023/09/10 02:37:26;;;;;;;5.63;2.50;;;;;;;15.68;45.69;101185.36;125655;1099;102189;-79
2023/09/10 02:39:57;;;;;;;7.20;2.70;;;;;;;15.65;45.82;101183.52;125657;1099;104223;-79
2023/09/10 02:42:29;;;;;;;7.93;2.80;;;;;;;15.63;44.99;101178.19;125692;1099;101859;-79
2023/09/10 02:45:02;;;;;;;5.57;2.73;;;;;;;15.61;45.33;101181.64;125705;1099;104261;-79
2023/09/10 02:47:33;;;;;;;5.87;2.70;;;;;;;15.57;45.88;101185.08;125637;1099;104200;-78
2023/09/10 02:50:05;;;;;;;9.27;2.50;;;;;;;15.53;45.91;101181.44;125841;1099;102198;-79
2023/09/10 02:52:36;;;;;;;8.60;2.90;;;;;;;15.49;45.09;101181.31;125708;1099;102565;-79
2023/09/10 02:55:08;;;;;;;8.77;2.87;;;;;;;15.47;45.55;101186.56;125737;1099;102038;-79
2023/09/10 02:57:40;;;;;;;8.83;2.97;;;;;;;15.51;45.03;101185.80;125754;1099;101877;-79
2023/09/10 03:00:13;;;;;;;9.47;2.60;;;;;;;15.50;46.10;101186.64;125762;1099;104348;-79
2023/09/10 03:02:44;;;;;;;6.67;2.90;;;;;;;15.47;45.25;101186.56;125619;1099;101807;-78
2023/09/10 03:05:16;;;;;;;5.15;2.62;;;;;;;15.40;45.37;101189.92;125658;1099;104152;-79
2023/09/10 03:07:47;;;;;;;6.77;3.30;;;;;;;15.34;45.89;101197.69;125626;1099;104109;-79
2023/09/10 03:10:19;;;;;;;7.80;3.30;;;;;;;15.27;46.63;101194.88;125552;1099;104195;-79
2023/09/10 03:12:50;;;;;;;9.87;3.70;;;;;;;15.30;46.00;101193.16;125398;1099;101963;-79
2023/09/10 03:15:22;;;;;;;12.03;3.77;;;;;;;15.24;46.54;101194.78;125425;1099;104315;-79
2023/09/10 03:17:53;;;;;;;12.00;3.40;;;;;;;15.23;46.39;101198.27;125572;1099;102134;-79
2023/09/10 03:20:24;;;;;;;8.00;3.80;;;;;;;15.25;46.05;101191.30;125593;1099;101872;-79
2023/09/10 03:22:59;;;;;;;9.73;3.33;;;;;;;15.26;46.22;101206.29;125588;1099;104179;-79
2023/09/10 03:25:38;;;;;;;13.03;3.70;;;;;;;15.23;46.93;101202.67;125608;1099;104313;-80
2023/09/10 03:28:10;;;;;;;13.83;3.97;;;;;;;15.23;47.40;101200.03;126095;1099;102335;-80
2023/09/10 03:30:42;;;;;;;12.23;3.80;;;;;;;15.22;46.67;101201.80;125580;1098;104207;-79
2023/09/10 03:33:14;;;;;;;8.63;3.40;;;;;;;15.22;46.61;101203.52;125660;1098;104230;-80
2023/09/10 03:35:46;;;;;;;7.07;3.37;;;;;;;15.18;46.65;101205.19;125458;1099;105076;-79
2023/09/10 03:38:17;;;;;;;10.03;3.40;;;;;;;15.18;47.30;101210.48;125611;1099;102138;-79
2023/09/10 03:40:49;;;;;;;8.53;3.47;;;;;;;15.15;46.93;101212.15;125491;1099;104182;-80
2023/09/10 03:43:20;;;;;;;11.00;3.70;;;;;;;15.12;46.99;101204.13;125627;1099;102268;-79
2023/09/10 03:45:52;;;;;;;10.67;3.37;;;;;;;15.11;47.18;101208.50;125657;1099;102016;-79
2023/09/10 03:48:23;;;;;;;10.73;3.53;;;;;;;15.08;47.67;101206.69;125598;1099;104190;-79
2023/09/10 03:50:55;;;;;;;9.03;3.17;;;;;;;15.08;47.42;101213.70;125599;1099;102271;-79
2023/09/10 03:53:26;;;;;;;10.23;3.30;;;;;;;15.07;47.67;101210.17;125553;1099;104098;-79
2023/09/10 03:55:58;;;;;;;10.43;3.40;;;;;;;15.07;47.72;101218.09;125620;1099;104295;-80
2023/09/10 03:58:30;;;;;;;11.43;3.53;;;;;;;15.06;47.05;101215.41;125659;1099;102227;-79
2023/09/10 04:01:02;;;;;;;9.43;3.63;;;;;;;15.06;47.32;101213.66;125537;1099;101928;-79
2023/09/10 04:03:33;;;;;;;7.70;3.43;;;;;;;15.07;47.42;101217.22;125532;1099;102063;-78
2023/09/10 04:06:05;;;;;;;12.93;3.60;;;;;;;15.10;48.31;101220.83;125478;1099;101809;-79
2023/09/10 04:08:36;;;;;;;12.87;3.80;;;;;;;15.07;47.50;101220.74;125408;1098;102131;-78
2023/09/10 04:11:08;;;;;;;8.40;3.35;;;;;;;15.03;48.21;101221.49;125560;1099;104332;-77
2023/09/10 04:13:40;;;;;;;9.67;3.60;;;;;;;15.05;48.73;101222.45;125548;1099;104274;-79
2023/09/10 04:16:11;;;;;;;9.63;4.00;;;;;;;15.01;48.49;101225.84;125534;1099;101961;-78
2023/09/10 04:18:42;;;;;;;7.75;3.30;;;;;;;14.95;47.96;101219.50;125317;1099;102128;-78
2023/09/10 04:21:14;;;;;;;12.83;4.40;;;;;;;14.94;48.89;101218.58;125597;1098;104166;-79
2023/09/10 04:23:45;;;;;;;11.50;4.20;;;;;;;14.89;47.95;101217.56;125391;1099;104306;-79
2023/09/10 04:26:16;;;;;;;9.73;3.77;;;;;;;14.79;49.08;101226.97;125597;1099;104670;-79
2023/09/10 04:28:48;;;;;;;13.63;3.87;;;;;;;14.66;48.72;101228.35;125569;1099;103370;-78
2023/09/10 04:31:19;;;;;;;11.10;3.53;;;;;;;14.56;48.89;101224.47;125627;1098;104206;-78
2023/09/10 04:33:51;;;;;;;17.10;3.53;;;;;;;14.44;48.50;101225.84;125632;1099;104207;-79
2023/09/10 04:36:22;;;;;;;7.80;3.40;;;;;;;14.33;49.06;101229.02;125701;1099;102904;-78
2023/09/10 04:38:54;;;;;;;9.50;3.57;;;;;;;14.28;48.84;101224.47;125717;1099;101800;-79
2023/09/10 04:41:25;;;;;;;9.97;3.43;;;;;;;14.26;48.50;101237.62;125505;1099;104220;-79
2023/09/10 04:43:56;;;;;;;13.50;3.53;;;;;;;14.28;48.93;101222.71;125578;1099;104166;-79
2023/09/10 04:46:28;;;;;;;8.80;3.30;;;;;;;14.34;48.94;101233.47;125155;1096;104248;-78
2023/09/10 04:48:59;;;;;;;11.80;3.33;;;;;;;14.37;48.54;101232.69;125534;1098;112094;-77
2023/09/10 04:51:31;;;;;;;6.93;3.30;;;;;;;14.34;48.74;101225.55;125628;1099;101849;-78
2023/09/10 04:54:03;;;;;;;9.87;3.33;;;;;;;14.31;48.74;101233.37;125470;1099;101905;-78
2023/09/10 04:56:35;;;;;;;7.47;3.23;;;;;;;14.31;49.30;101228.09;125558;1099;104163;-79
2023/09/10 04:59:06;;;;;;;10.00;3.90;;;;;;;14.33;49.08;101226.38;125680;1098;101945;-81
2023/09/10 05:01:38;;;;;;;12.83;3.10;;;;;;;14.34;49.06;101222.03;125650;1099;104215;-80
2023/09/10 05:04:10;;;;;;;10.20;4.60;;;;;;;14.37;48.72;101228.28;125614;1099;101981;-80
2023/09/10 05:06:41;;;;;;;10.87;3.30;;;;;;;14.41;49.24;101233.66;124969;1099;102004;-80
2023/09/10 05:09:13;;;;;;;9.63;3.30;;;;;;;14.44;49.66;101231.13;125284;1099;103381;-81
2023/09/10 05:11:44;;;;;;;7.50;3.30;;;;;;;14.47;49.79;101233.86;125565;1098;102317;-80
2023/09/10 05:14:17;;;;;;;10.90;3.60;;;;;;;14.49;49.45;101237.44;125686;1099;104176;-81
2023/09/10 05:16:48;;;;;;;8.63;3.20;;;;;;;14.52;49.60;101238.45;125737;1099;104201;-81
2023/09/10 05:19:19;;;;;;;8.00;3.30;;;;;;;14.55;48.88;101233.27;125290;1099;104191;-80
2023/09/10 05:21:51;;;;;;;5.83;3.13;;;;;;;14.60;49.11;101229.85;124942;1099;102282;-81
2023/09/10 05:24:22;;;;;;;6.95;2.95;;;;;;;14.65;49.38;101234.47;125603;1099;104224;-81
2023/09/10 05:26:54;;;;;;;8.97;3.13;;;;;;;14.71;49.09;101232.02;124995;1099;102218;-81
2023/09/10 05:29:26;;;;;;;11.17;3.30;;;;;;;14.76;49.81;101240.08;125711;1099;102026;-80
2023/09/10 05:31:57;;;;;;;8.13;2.90;;;;;;;14.83;49.63;101235.88;125563;1099;102087;-78
2023/09/10 05:34:28;;;;;;;11.07;3.40;;;;;;;14.92;49.64;101244.08;125531;1099;101926;-80
2023/09/10 05:37:00;;;;;;;7.40;3.33;;;;;;;15.03;48.97;101247.92;125508;1099;104256;-79
2023/09/10 05:39:31;;;;;;;9.03;3.50;;;;;;;15.12;49.55;101251.71;125580;1098;104304;-78
2023/09/10 05:42:03;;;;;;;8.43;3.37;;;;;;;15.19;49.59;101246.64;125313;1099;104730;-79
2023/09/10 05:44:34;;;;;;;11.20;3.47;;;;;;;15.29;49.83;101245.15;125142;1099;101917;-79
2023/09/10 05:47:06;;;;;;;8.23;3.33;;;;;;;15.41;49.13;101244.58;125207;1099;102067;-79
2023/09/10 05:49:37;;;;;;;9.43;3.40;;;;;;;15.49;49.95;101255.38;125555;1099;102081;-81
2023/09/10 05:52:09;;;;;;;8.97;3.20;;;;;;;15.55;48.94;101255.54;125222;1099;104274;-78
2023/09/10 05:54:40;;;;;;;8.00;3.17;;;;;;;15.62;48.94;101249.58;125280;1099;102089;-79
2023/09/10 05:57:11;;;;;;;8.53;3.30;;;;;;;15.70;48.95;101250.66;125428;1099;104172;-80
2023/09/10 05:59:43;;;;;;;9.80;3.23;;;;;;;15.81;48.87;101249.22;125244;1099;102269;-79
2023/09/10 06:02:14;;;;;;;6.33;2.90;;;;;;;15.93;48.69;101246.02;125665;1099;102332;-79
2023/09/10 06:04:45;;;;;;;4.37;2.70;;;;;;;16.04;49.08;101243.64;125596;1099;104297;-80
2023/09/10 06:07:17;;;;;;;8.47;3.50;;;;;;;16.12;49.20;101247.37;125341;1099;104198;-80
2023/09/10 06:09:48;;;;;;;8.93;2.90;;;;;;;16.21;48.92;101251.13;125633;1099;104217;-80
2023/09/10 06:12:19;;;;;;;13.53;3.17;;;;;;;16.28;48.89;101258.34;125636;1099;104648;-79
2023/09/10 06:14:51;;;;;;;7.80;2.95;;;;;;;16.37;48.27;101255.03;125586;1099;104178;-79
2023/09/10 06:17:22;;;;;;;4.77;2.60;;;;;;;16.42;48.19;101250.73;125671;1099;101918;-79
2023/09/10 06:19:53;;;;;;;7.93;2.77;;;;;;;16.47;47.96;101252.64;125400;1099;102254;-79
2023/09/10 06:22:24;;;;;;;5.93;2.90;;;;;;;16.54;47.98;101264.27;125009;1099;102164;-79
2023/09/10 06:24:56;;;;;;;5.90;2.80;;;;;;;16.60;48.03;101252.92;125027;1099;101923;-78
2023/09/10 06:27:27;;;;;;;6.03;2.57;;;;;;;16.67;48.47;101266.35;125619;1099;104242;-81
2023/09/10 06:29:59;;;;;;;7.53;2.80;;;;;;;16.71;48.35;101270.84;125530;1099;104256;-77
2023/09/10 06:32:30;;;;;;;7.30;2.70;;;;;;;16.78;48.24;101270.98;125500;1099;104246;-80
2023/09/10 06:35:01;;;;;;;4.37;2.53;;;;;;;16.85;47.73;101260.55;125559;1099;104325;-78
2023/09/10 06:37:33;;;;;;;8.03;3.53;;;;;;;16.95;47.61;101264.33;125581;1099;102037;-80
2023/09/10 06:40:06;;;;;;;8.27;3.10;;;;;;;17.07;47.85;101269.89;125619;1099;102023;-79
2023/09/10 06:42:38;;;;;;;11.10;2.67;;;;;;;17.19;47.89;101271.92;125636;1099;104629;-78
2023/09/10 06:45:16;;;;;;;6.93;2.93;;;;;;;17.29;47.91;101269.46;125430;1099;102068;-80
2023/09/10 06:47:48;;;;;;;6.40;2.90;;;;;;;17.37;47.68;101268.77;125607;1099;104208;-80
2023/09/10 06:50:19;;;;;;;5.47;2.40;;;;;;;17.45;48.18;101268.88;125557;1099;104083;-78
2023/09/10 06:52:50;;;;;;;10.03;2.60;;;;;;;17.56;47.46;101267.36;125278;1099;104265;-77
2023/09/10 06:55:23;;;;;;;5.30;2.43;;;;;;;17.70;47.62;101277.32;124898;1099;104299;-77
2023/09/10 06:57:55;;;;;;;3.97;2.00;;;;;;;17.78;47.49;101268.65;125351;1099;101916;-77
2023/09/10 07:00:26;;;;;;;4.40;2.60;;;;;;;17.90;47.27;101270.68;125413;1099;104240;-77
2023/09/10 07:02:58;;;;;;;5.47;2.60;;;;;;;18.01;47.57;101269.95;125537;1099;101923;-80
2023/09/10 07:05:30;;;;;;;5.23;2.60;;;;;;;18.10;47.05;101264.80;125463;1099;104220;-76
2023/09/10 07:08:01;;;;;;;4.77;2.53;;;;;;;18.20;47.45;101268.50;125364;1099;101846;-77
2023/09/10 07:10:34;;;;;;;8.33;2.97;;;;;;;18.30;47.27;101267.80;125317;1099;102367;-78
2023/09/10 07:13:07;;;;;;;8.73;3.00;;;;;;;18.44;47.38;101258.27;125457;1098;102022;-79
2023/09/10 07:15:38;;;;;;;7.17;3.27;;;;;;;18.60;47.17;101261.16;125551;1098;102029;-80
2023/09/10 07:18:10;;;;;;;6.17;2.50;;;;;;;18.74;46.83;101256.05;125394;1099;104169;-77
2023/09/10 07:20:41;;;;;;;6.30;2.73;;;;;;;18.88;46.50;101258.94;125403;1099;101807;-79
2023/09/10 07:23:12;;;;;;;7.47;2.90;;;;;;;19.02;47.06;101258.23;125542;1098;102012;-78
2023/09/10 07:25:44;;;;;;;4.63;2.70;;;;;;;19.15;46.36;101263.70;125508;1098;104320;-77
2023/09/10 07:28:15;;;;;;;6.50;2.60;;;;;;;19.28;46.07;101260.34;125542;1099;102013;-79
2023/09/10 07:30:46;;;;;;;5.70;2.53;;;;;;;19.45;46.58;101263.20;125640;1099;104230;-81
2023/09/10 07:33:18;;;;;;;9.93;2.70;;;;;;;19.57;46.28;101257.09;125683;1098;104239;-81
2023/09/10 07:35:49;;;;;;;8.03;2.37;;;;;;;19.64;45.45;101261.63;125624;1099;101829;-80
2023/09/10 07:38:20;;;;;;;8.30;2.53;;;;;;;19.76;45.65;101255.55;125510;1098;104331;-80
2023/09/10 07:40:51;;;;;;;7.13;2.83;;;;;;;19.92;45.43;101249.50;125533;1099;101907;-78
2023/09/10 07:43:23;;;;;;;8.67;2.40;;;;;;;20.12;45.16;101251.46;125729;1099;101833;-79
2023/09/10 07:45:54;;;;;;;5.63;2.57;;;;;;;20.31;45.07;101251.61;125506;1099;101836;-78
2023/09/10 07:48:26;;;;;;;4.50;2.60;;;;;;;20.31;45.17;101260.48;125522;1098;104274;-79
2023/09/10 07:50:58;;;;;;;4.60;2.50;;;;;;;20.33;44.28;101256.05;125626;1098;101994;-77
2023/09/10 07:53:29;;;;;;;6.27;2.73;;;;;;;20.45;44.70;101256.14;125743;1099;102125;-79
2023/09/10 07:56:01;;;;;;;7.10;2.33;;;;;;;20.55;44.35;101258.88;125457;1099;102156;-78
2023/09/10 07:58:33;;;;;;;5.37;2.60;;;;;;;20.52;43.13;101257.09;125553;1099;104198;-78
2023/09/10 08:01:04;;;;;;;10.47;3.00;;;;;;;20.55;43.15;101253.54;125562;1099;101833;-79
2023/09/10 08:03:37;;;;;;;4.23;2.47;;;;;;;20.62;43.76;101247.37;125503;1099;102022;-78
2023/09/10 08:06:08;;;;;;;5.95;2.50;;;;;;;20.75;43.32;101249.25;125660;1099;102108;-79
2023/09/10 08:08:40;;;;;;;7.23;2.80;;;;;;;20.79;42.75;101247.52;125857;1098;102183;-79
2023/09/10 08:11:11;;;;;;;6.33;2.47;;;;;;;20.89;42.84;101240.44;125657;1099;102684;-79
2023/09/10 08:13:43;;;;;;;7.33;2.73;;;;;;;21.06;42.76;101236.06;125597;1099;104169;-80
2023/09/10 08:16:15;;;;;;;4.50;2.40;;;;;;;21.23;41.93;101240.59;125672;1099;104197;-81
2023/09/10 08:18:46;;;;;;;5.03;2.60;;;;;;;21.45;42.23;101230.86;125883;1099;104211;-80
2023/09/10 08:21:18;;;;;;;7.07;2.23;;;;;;;21.62;42.26;101229.14;125805;1099;104213;-78
2023/09/10 08:23:50;;;;;;;10.07;2.40;;;;;;;21.71;40.76;101228.28;125574;1099;101885;-80
2023/09/10 08:26:21;;;;;;;5.73;2.20;;;;;;;21.82;41.17;101231.84;125526;1099;101826;-79
2023/09/10 08:28:53;;;;;;;3.97;2.07;;;;;;;21.88;40.78;101225.62;125532;1099;104208;-79
2023/09/10 08:31:24;;;;;;;3.87;2.10;;;;;;;21.88;41.39;101231.85;125416;1099;104098;-80
2023/09/10 08:33:55;;;;;;;9.00;2.40;;;;;;;21.94;40.35;101230.06;125506;1099;101913;-80
2023/09/10 08:36:26;;;;;;;4.50;1.90;;;;;;;22.08;40.99;101220.29;125620;1099;101779;-80
2023/09/10 08:38:58;;;;;;;6.33;1.90;;;;;;;22.11;40.17;101220.29;125738;1099;102309;-79
2023/09/10 08:41:38;;;;;;;3.27;1.77;;;;;;;22.02;39.58;101231.86;125726;1099;101959;-79
2023/09/10 08:44:17;;;;;;;5.63;2.03;;;;;;;21.84;39.35;101224.71;125647;1099;104323;-79
2023/09/10 08:46:52;;;;;;;4.07;1.73;;;;;;;21.87;38.99;101227.38;124867;1099;104170;-80
2023/09/10 08:49:25;;;;;;;4.53;2.07;;;;;;;21.95;38.86;101227.39;125577;1099;102038;-81
2023/09/10 08:51:57;;;;;;;3.00;1.90;;;;;;;22.08;38.52;101220.29;125572;1099;102077;-80
2023/09/10 08:54:29;;;;;;;7.30;1.90;;;;;;;22.29;38.05;101216.69;125513;1099;104244;-81
2023/09/10 08:57:02;;;;;;;8.33;2.23;;;;;;;22.46;38.43;101215.81;125694;1099;102038;-78
2023/09/10 08:59:35;;;;;;;3.67;2.03;;;;;;;22.48;38.03;101214.90;126458;1098;104194;-79
2023/09/10 09:02:08;;;;;;;7.10;2.07;;;;;;;22.58;37.66;101213.13;125469;1099;101814;-79
2023/09/10 09:04:39;;;;;;;5.07;2.33;;;;;;;22.70;37.67;101209.50;125614;1099;102361;-81
2023/09/10 09:07:12;;;;;;;8.47;2.13;;;;;;;22.85;37.86;101198.75;126398;1098;101913;-79
2023/09/10 09:09:50;;;;;;;6.97;2.05;;;;;;;22.92;37.39;101211.22;125489;1099;104240;-79
2023/09/10 09:12:22;;;;;;;6.67;2.40;;;;;;;22.93;36.93;101204.06;125434;1099;104079;-79
2023/09/10 09:14:53;;;;;;;7.07;2.60;;;;;;;22.90;37.37;101210.31;125461;1099;102083;-80
2023/09/10 09:17:25;;;;;;;8.17;2.10;;;;;;;22.95;37.13;101207.62;126421;1098;101884;-78
2023/09/10 09:19:59;;;;;;;3.77;1.90;;;;;;;22.97;37.03;101204.05;125313;1099;103027;-77
2023/09/10 09:22:33;;;;;;;9.87;2.43;;;;;;;22.89;36.48;101200.52;125407;1099;101815;-79
2023/09/10 09:25:07;;;;;;;5.20;2.00;;;;;;;22.92;36.41;101200.52;125584;1099;101840;-83
2023/09/10 09:27:39;;;;;;;7.23;2.40;;;;;;;22.99;36.17;101193.34;126380;1098;102037;-78
2023/09/10 09:30:12;;;;;;;3.07;2.00;;;;;;;23.02;35.71;101195.12;125688;1099;104271;-81
2023/09/10 09:32:46;;;;;;;3.77;2.25;;;;;;;22.95;36.10;101181.77;125637;1099;104172;-82
2023/09/10 09:35:18;;;;;;;3.90;1.93;;;;;;;23.00;35.95;101192.45;126521;1098;102090;-79
2023/09/10 09:37:49;;;;;;;4.33;1.73;;;;;;;23.08;35.53;101181.71;125682;1099;101840;-79
2023/09/10 09:40:22;;;;;;;5.17;1.93;;;;;;;23.01;35.53;101182.63;125679;1099;101817;-78
2023/09/10 09:42:54;;;;;;;;;;;;;;;22.95;34.11;101181.77;125606;1099;101874;-80
2023/09/10 09:45:26;;;;;;;5.93;2.20;;;;;;;22.89;34.99;101176.44;125384;1099;102007;-81
2023/09/10 09:47:57;;;;;;;6.93;2.10;;;;;;;22.87;34.90;101178.21;125598;1098;101899;-80
2023/09/10 09:50:28;;;;;;;6.93;2.20;;;;;;;22.93;34.96;101178.19;125421;1099;102038;-80
2023/09/10 09:53:00;;;;;;;5.80;1.90;;;;;;;23.02;35.08;101179.94;125533;1099;101826;-80
2023/09/10 09:55:32;;;;;;;4.13;2.40;;;;;;;22.98;34.49;101181.75;125623;1098;104195;-80
2023/09/10 09:58:07;;;;;;;4.10;1.90;;;;;;;23.02;34.42;101179.06;125522;1098;104331;-80
2023/09/10 10:00:38;;;;;;;3.33;2.13;;;;;;;23.08;34.38;101176.36;125566;1099;103468;-80
2023/09/10 10:03:10;;;;;;;5.50;2.10;;;;;;;23.13;34.45;101169.22;125526;1098;101830;-79
2023/09/10 10:05:42;;;;;;;2.30;1.80;;;;;;;23.14;34.23;101171.00;125512;1099;104261;-80
2023/09/10 10:08:15;;;;;;;7.17;2.47;;;;;;;23.02;33.71;101166.56;125606;1099;104275;-80
2023/09/10 10:10:49;;;;;;;3.58;2.05;;;;;;;23.00;33.48;101167.45;125668;1099;101950;-82
2023/09/10 10:13:22;;;;;;;5.67;2.47;;;;;;;22.94;33.29;101169.27;125493;1099;102132;-79
2023/09/10 10:15:54;;;;;;;5.37;2.17;;;;;;;23.03;33.82;101167.44;125464;1099;104270;-81
2023/09/10 10:18:27;;;;;;;3.63;1.97;;;;;;;23.14;33.61;101171.00;125398;1098;104238;-78
2023/09/10 10:21:00;;;;;;;3.27;2.00;;;;;;;23.21;33.37;101167.38;126308;1098;101788;-81
2023/09/10 10:23:31;;;;;;;5.33;2.13;;;;;;;23.33;33.46;101161.95;125589;1099;102047;-81
2023/09/10 10:26:05;;;;;;;4.23;1.80;;;;;;;23.38;33.23;101150.33;125499;1099;103716;-82
2023/09/10 10:28:38;;;;;;;4.43;2.10;;;;;;;23.48;33.33;101157.38;125546;1099;101932;-81
2023/09/10 10:31:16;;;;;;;4.23;2.00;;;;;;;23.53;33.19;101152.89;125341;1099;104185;-78
2023/09/10 10:34:13;;;;;;;8.70;2.17;;;;;;;23.59;32.96;101144.81;125551;1099;104169;-79
2023/09/10 10:37:11;;;;;;;3.80;2.07;;;;;;;23.64;33.19;101136.73;125224;1099;101996;-79
2023/09/10 10:39:50;;;;;;;6.20;2.03;;;;;;;23.73;33.32;101138.44;126180;1098;101862;-78
2023/09/10 10:42:30;;;;;;;5.10;2.13;;;;;;;23.77;33.10;101130.36;125326;1098;102096;-79
2023/09/10 10:45:06;;;;;;;5.00;2.30;;;;;;;23.84;33.08;101133.89;125183;1099;101893;-80
2023/09/10 10:47:41;;;;;;;4.37;2.10;;;;;;;23.91;32.82;101130.27;125476;1098;102350;-79
2023/09/10 10:50:14;;;;;;;6.00;2.10;;;;;;;23.91;32.25;101137.43;125512;1099;101956;-79
2023/09/10 10:52:51;;;;;;;2.50;1.60;;;;;;;23.94;32.29;101127.55;125485;1099;104236;-81
2023/09/10 10:55:24;;;;;;;4.20;1.87;;;;;;;23.95;32.42;101126.66;125522;1099;104165;-80
2023/09/10 10:57:56;;;;;;;2.40;1.90;;;;;;;23.83;31.69;101116.02;125695;1098;104163;-81
2023/09/10 11:00:30;;;;;;;2.50;2.00;;;;;;;23.81;31.76;101115.13;125840;1099;102041;-79
2023/09/10 11:03:20;;;;;;;5.63;2.00;;;;;;;23.88;31.55;101110.66;125652;1098;104287;-82
2023/09/10 11:06:06;;;;;;;5.30;2.17;;;;;;;23.89;31.52;101113.32;125675;1099;104096;-80
2023/09/10 11:08:42;;;;;;;1.93;1.73;;;;;;;23.88;31.62;101105.30;125664;1099;104277;-81
2023/09/10 11:11:50;;;;;;;2.43;1.77;;;;;;;23.86;31.71;101100.83;125710;1099;104246;-81
2023/09/10 11:14:21;;;;;;;5.10;1.90;;;;;;;23.79;30.54;101098.19;125582;1098;101830;-81
2023/09/10 11:17:24;;;;;;;4.67;1.80;;;;;;;23.77;30.04;101097.33;125772;1099;117837;-81
2023/09/10 11:19:55;;;;;;;3.77;1.93;;;;;;;23.78;30.11;101105.34;125629;1099;102033;-82
2023/09/10 11:22:26;;;;;;;2.23;1.50;;;;;;;23.79;29.51;101103.55;125796;1099;102116;-82
2023/09/10 11:25:05;;;;;;;5.97;1.50;;;;;;;23.78;29.52;101102.67;126438;1098;101794;-82
2023/09/10 11:27:37;;;;;;;2.20;1.60;;;;;;;23.82;29.69;101092.80;125839;1099;104227;-80
2023/09/10 11:30:13;;;;;;;3.53;1.87;;;;;;;23.88;29.68;101094.58;125931;1099;102044;-81
2023/09/10 11:32:44;;;;;;;3.70;1.63;;;;;;;23.94;29.57;101095.39;125828;1099;102532;-80
2023/09/10 11:35:32;;;;;;;2.27;1.70;;;;;;;23.98;29.08;101085.52;125773;1099;101903;-80